Time;durP1;ratioP1;P1;durP2;ratioP2;P2;SDS_P1;SDS_P2;PMS_P1;PMS_P2;Temp;Humidity;BMP_temperature;BMP_pressure;BME280_temperature;BME280_humidity;BME280_pressure;Samples;Min_cycle;Max_cycle;Signal;HPM_P1;HPM_P2
2021/05/15 00:00:27;;;;;;;2.55;1.80;;;;;;;7.54;87.03;99377.38;5012934;28;20033;-83
2021/05/15 00:02:52;;;;;;;2.80;1.17;;;;;;;7.51;86.53;99370.53;5006831;28;20117;-84
2021/05/15 00:05:18;;;;;;;3.75;1.60;;;;;;;7.46;86.96;99352.41;5009820;28;20096;-84
2021/05/15 00:07:43;;;;;;;2.25;1.08;;;;;;;7.45;86.59;99349.91;5023512;28;20068;-84
2021/05/15 00:10:09;;;;;;;4.25;2.10;;;;;;;7.43;86.18;99342.06;5011582;28;20176;-84
2021/05/15 00:12:34;;;;;;;1.92;1.10;;;;;;;7.42;86.78;99340.44;5026576;28;20017;-84
2021/05/15 00:15:02;;;;;;;4.18;1.45;;;;;;;7.45;86.61;99350.75;5024844;28;20025;-84
2021/05/15 00:17:28;;;;;;;1.60;0.93;;;;;;;7.48;86.71;99341.50;5020841;28;20030;-85
2021/05/15 00:19:53;;;;;;;1.73;0.90;;;;;;;7.49;86.33;99337.84;5007435;28;20044;-83
2021/05/15 00:22:18;;;;;;;1.25;0.80;;;;;;;7.48;86.94;99339.66;5025196;28;20021;-84
2021/05/15 00:24:44;;;;;;;0.88;0.70;;;;;;;7.48;86.47;99334.31;5029876;28;20025;-83
2021/05/15 00:27:09;;;;;;;1.08;0.70;;;;;;;7.49;86.18;99317.25;5034108;28;20021;-84
2021/05/15 00:29:35;;;;;;;2.97;0.80;;;;;;;7.38;86.67;99293.72;5010042;28;20041;-84
2021/05/15 00:32:00;;;;;;;2.95;0.75;;;;;;;7.23;86.74;99272.38;5028464;28;20075;-84
2021/05/15 00:34:25;;;;;;;1.90;0.90;;;;;;;7.42;86.62;99302.16;5011077;28;20028;-84
2021/05/15 00:36:51;;;;;;;2.55;0.93;;;;;;;7.41;86.53;99305.84;5011208;28;20062;-84
2021/05/15 00:39:18;;;;;;;1.40;0.80;;;;;;;7.49;87.14;99313.78;5022100;28;20017;-84
2021/05/15 00:41:43;;;;;;;2.45;0.93;;;;;;;7.52;87.41;99308.03;5009791;28;20044;-85
2021/05/15 00:44:16;;;;;;;2.80;1.00;;;;;;;7.49;86.99;99293.19;5028016;28;20824;-84
2021/05/15 00:46:44;;;;;;;1.30;1.00;;;;;;;7.65;86.88;99300.13;5013466;28;20029;-84
2021/05/15 00:49:09;;;;;;;1.80;0.90;;;;;;;7.64;87.25;99305.66;5012296;28;20017;-83
2021/05/15 00:51:35;;;;;;;1.85;0.90;;;;;;;7.57;87.21;99294.91;5012240;28;20155;-84
2021/05/15 00:54:01;;;;;;;1.00;0.80;;;;;;;7.52;87.58;99285.81;5029522;28;20057;-84
2021/05/15 00:56:28;;;;;;;0.90;0.75;;;;;;;7.66;87.06;99298.28;5011537;28;20018;-85
2021/05/15 00:58:55;;;;;;;2.28;1.10;;;;;;;7.61;86.96;99298.03;5011973;28;20025;-85
2021/05/15 01:01:21;;;;;;;1.13;0.93;;;;;;;7.62;86.87;99292.50;5025257;28;20630;-84
2021/05/15 01:03:46;;;;;;;3.45;1.23;;;;;;;7.63;86.93;99283.44;5024612;28;20032;-84
2021/05/15 01:06:11;;;;;;;1.80;1.08;;;;;;;7.70;86.53;99283.50;5025137;28;20033;-84
2021/05/15 01:08:40;;;;;;;1.10;0.95;;;;;;;7.70;86.35;99268.28;5028166;28;20057;-83
2021/05/15 01:11:05;;;;;;;1.90;1.10;;;;;;;7.72;86.15;99273.41;5028041;28;20021;-84
2021/05/15 01:13:35;;;;;;;1.67;1.10;;;;;;;7.70;85.72;99262.09;5021555;28;20014;-84
2021/05/15 01:16:00;;;;;;;1.27;0.77;;;;;;;7.49;86.05;99234.34;5011180;28;20024;-84
2021/05/15 01:18:26;;;;;;;1.70;0.60;;;;;;;7.80;85.61;99275.13;5019743;28;20014;-84
2021/05/15 01:20:52;;;;;;;2.40;1.10;;;;;;;7.74;86.16;99257.19;5012082;28;20021;-84
2021/05/15 01:23:17;;;;;;;1.75;0.90;;;;;;;7.69;86.25;99249.72;5028243;28;20025;-83
2021/05/15 01:25:43;;;;;;;0.90;0.70;;;;;;;7.70;86.23;99254.91;5027938;28;20018;-84
2021/05/15 01:28:08;;;;;;;1.55;0.90;;;;;;;7.79;85.88;99263.59;5020029;28;20472;-84
2021/05/15 01:30:34;;;;;;;1.10;0.80;;;;;;;7.69;85.99;99242.53;5011634;28;20087;-83
2021/05/15 01:32:59;;;;;;;1.35;0.80;;;;;;;7.75;85.86;99253.47;5010535;28;20025;-84
2021/05/15 01:35:25;;;;;;;1.50;0.82;;;;;;;7.75;86.00;99248.13;5008641;28;20017;-83
2021/05/15 01:37:56;;;;;;;2.58;0.93;;;;;;;7.71;86.18;99243.16;5025912;28;20064;-84
2021/05/15 01:40:21;;;;;;;1.85;0.75;;;;;;;7.71;86.11;99237.81;5025787;28;20105;-84
2021/05/15 01:42:47;;;;;;;2.20;0.90;;;;;;;7.74;86.36;99249.97;5013778;28;20115;-84
2021/05/15 01:45:12;;;;;;;1.77;0.70;;;;;;;7.65;86.37;99227.06;5022601;28;20022;-84
2021/05/15 01:47:38;;;;;;;1.92;0.80;;;;;;;7.76;86.67;99245.25;5027406;28;20021;-84
2021/05/15 01:50:05;;;;;;;1.58;0.80;;;;;;;7.80;86.58;99248.38;5024731;28;20066;-84
2021/05/15 01:52:31;;;;;;;1.42;0.77;;;;;;;7.80;86.20;99237.66;5011509;28;20052;-85
2021/05/15 01:54:56;;;;;;;0.73;0.70;;;;;;;7.79;86.49;99225.31;5000276;28;20061;-84
2021/05/15 01:57:22;;;;;;;0.95;0.70;;;;;;;7.53;86.61;99185.81;5026035;28;20036;-84
2021/05/15 01:59:47;;;;;;;0.60;0.60;;;;;;;7.76;86.32;99218.50;5025429;28;20030;-84
2021/05/15 02:02:13;;;;;;;0.50;0.50;;;;;;;7.77;86.82;99214.78;5024166;28;20038;-84
2021/05/15 02:04:38;;;;;;;1.30;0.70;;;;;;;7.82;86.49;99217.72;5013440;28;20014;-84
2021/05/15 02:07:03;;;;;;;1.23;0.70;;;;;;;7.84;86.27;99220.22;5024238;28;20459;-83
2021/05/15 02:09:29;;;;;;;0.75;0.60;;;;;;;7.80;86.14;99206.38;5029846;28;20021;-84
2021/05/15 02:11:54;;;;;;;1.48;0.70;;;;;;;7.67;86.17;99182.22;5020189;28;20030;-84
2021/05/15 02:14:20;;;;;;;1.55;0.90;;;;;;;7.64;86.21;99167.38;5012129;28;20022;-84
2021/05/15 02:16:45;;;;;;;0.85;0.77;;;;;;;7.82;86.63;99185.59;5026689;28;20108;-84
2021/05/15 02:19:10;;;;;;;1.70;0.73;;;;;;;7.59;86.52;99158.28;5023049;28;20025;-84
2021/05/15 02:21:36;;;;;;;1.15;0.70;;;;;;;7.82;87.03;99195.50;5015926;28;20577;-84
2021/05/15 02:24:02;;;;;;;2.03;0.90;;;;;;;7.83;86.64;99189.09;5032393;28;20056;-84
2021/05/15 02:26:27;;;;;;;1.77;0.85;;;;;;;7.78;86.93;99178.16;5014407;28;20047;-84
2021/05/15 02:28:53;;;;;;;0.80;0.70;;;;;;;7.66;86.92;99164.50;5012492;28;20038;-84
2021/05/15 02:31:19;;;;;;;1.17;0.70;;;;;;;7.76;87.12;99178.38;5025219;28;20104;-84
2021/05/15 02:33:44;;;;;;;1.17;0.63;;;;;;;7.75;87.21;99175.88;5024889;28;20053;-83
2021/05/15 02:36:09;;;;;;;1.67;0.70;;;;;;;7.81;87.21;99178.63;5012419;28;20530;-84
2021/05/15 02:38:35;;;;;;;2.30;0.98;;;;;;;7.80;87.45;99171.59;5025204;28;20026;-84
2021/05/15 02:41:01;;;;;;;0.80;0.60;;;;;;;7.87;87.31;99179.66;5032635;28;20112;-83
2021/05/15 02:43:26;;;;;;;1.35;0.70;;;;;;;7.75;87.10;99157.97;5027113;28;20093;-83
2021/05/15 02:45:52;;;;;;;1.00;0.70;;;;;;;7.84;87.24;99170.19;5041405;28;20120;-84
2021/05/15 02:48:18;;;;;;;1.45;0.70;;;;;;;7.82;86.75;99163.38;5011531;28;20140;-84
2021/05/15 02:50:51;;;;;;;0.60;0.60;;;;;;;7.83;86.78;99160.53;5028198;28;20093;-83
2021/05/15 02:53:17;;;;;;;1.45;0.50;;;;;;;7.88;87.10;99171.44;5021413;28;20095;-84
2021/05/15 02:55:43;;;;;;;0.95;0.80;;;;;;;7.87;87.02;99172.47;5017602;28;20087;-84
2021/05/15 02:58:10;;;;;;;1.20;0.60;;;;;;;7.81;87.32;99154.53;5025679;28;20044;-84
2021/05/15 03:00:36;;;;;;;0.88;0.60;;;;;;;7.87;87.75;99160.94;5027380;28;20108;-84
2021/05/15 03:03:01;;;;;;;2.15;0.80;;;;;;;7.93;87.62;99165.50;5026658;28;20037;-84
2021/05/15 03:05:28;;;;;;;0.60;0.60;;;;;;;7.93;87.16;99169.00;5028564;28;20029;-85
2021/05/15 03:07:53;;;;;;;0.90;0.68;;;;;;;7.86;87.36;99161.97;5020499;28;20041;-84
2021/05/15 03:10:23;;;;;;;2.20;0.60;;;;;;;7.78;87.99;99143.38;5031054;28;20029;-83
2021/05/15 03:12:53;;;;;;;0.70;0.60;;;;;;;7.80;87.97;99155.53;5026025;28;20050;-83
2021/05/15 03:15:19;;;;;;;0.82;0.57;;;;;;;7.74;88.69;99142.13;5009294;28;20030;-84
2021/05/15 03:17:44;;;;;;;0.75;0.60;;;;;;;7.79;88.61;99153.91;5023896;28;20056;-84
2021/05/15 03:20:13;;;;;;;1.30;0.63;;;;;;;7.87;88.56;99159.09;5024760;28;20026;-84
2021/05/15 03:22:38;;;;;;;0.85;0.68;;;;;;;7.85;88.42;99138.91;5023167;28;20026;-83
2021/05/15 03:25:05;;;;;;;0.73;0.70;;;;;;;7.87;88.57;99144.88;5010305;28;20099;-85
2021/05/15 03:27:31;;;;;;;1.15;0.70;;;;;;;7.87;88.29;99137.69;5012483;28;20026;-83
2021/05/15 03:29:56;;;;;;;1.15;0.95;;;;;;;7.91;88.38;99146.13;5023219;28;20022;-84
2021/05/15 03:32:21;;;;;;;2.10;1.00;;;;;;;7.90;88.21;99150.66;5007480;28;20381;-83
2021/05/15 03:34:47;;;;;;;0.77;0.60;;;;;;;7.87;88.72;99147.56;5024840;28;20028;-84
2021/05/15 03:37:12;;;;;;;1.30;0.80;;;;;;;7.71;88.38;99114.75;5019191;28;20108;-83
2021/05/15 03:39:38;;;;;;;0.88;0.70;;;;;;;7.90;88.64;99134.59;5010276;28;20025;-84
2021/05/15 03:42:04;;;;;;;0.93;0.70;;;;;;;8.00;88.48;99150.31;5026984;28;20061;-84
2021/05/15 03:44:29;;;;;;;1.08;0.70;;;;;;;7.91;88.50;99138.09;5009257;28;20155;-85
2021/05/15 03:46:55;;;;;;;1.20;0.80;;;;;;;7.99;88.78;99153.16;4995959;28;20101;-83
2021/05/15 03:49:20;;;;;;;1.63;0.70;;;;;;;8.01;88.54;99146.59;5004051;28;20033;-83
2021/05/15 03:51:46;;;;;;;0.60;0.60;;;;;;;8.04;88.53;99150.72;5011699;28;20075;-83
2021/05/15 03:54:11;;;;;;;0.65;0.60;;;;;;;7.90;88.67;99131.09;5011170;28;20033;-84
2021/05/15 03:56:36;;;;;;;0.90;0.70;;;;;;;7.84;88.97;99127.38;5011387;28;20021;-83
2021/05/15 03:59:02;;;;;;;0.57;0.57;;;;;;;7.72;88.72;99111.03;5009573;28;20481;-84
2021/05/15 04:01:28;;;;;;;1.17;0.70;;;;;;;7.95;nan;99134.00;5009406;28;20124;-83
2021/05/15 04:03:53;;;;;;;0.60;0.60;;;;;;;7.75;88.66;99098.28;5027212;28;20064;-83
2021/05/15 04:06:19;;;;;;;1.00;0.68;;;;;;;7.92;88.81;99124.53;5013487;28;20026;-83
2021/05/15 04:08:44;;;;;;;0.70;0.70;;;;;;;8.00;88.68;99134.25;5012418;28;20117;-83
2021/05/15 04:11:10;;;;;;;1.48;0.70;;;;;;;7.99;88.98;99132.59;5026637;28;20511;-83
2021/05/15 04:16:46;;;;;;;1.10;0.70;;;;;;;7.89;88.53;99122.25;5023225;28;20635;-83
2021/05/15 04:18:58;;;;;;;2.00;0.90;;;;;;;7.91;89.04;99125.56;5027633;28;20447;-83
2021/05/15 04:21:23;;;;;;;0.95;0.80;;;;;;;7.72;89.17;99099.50;5013931;28;20060;-83
2021/05/15 04:23:49;;;;;;;1.75;0.70;;;;;;;7.92;88.93;99137.91;5018789;28;20030;-83
2021/05/15 04:26:15;;;;;;;0.98;0.70;;;;;;;7.89;89.54;99127.59;5019488;28;20726;-84
2021/05/15 04:28:41;;;;;;;1.17;0.80;;;;;;;7.85;89.20;99122.84;5021471;28;20026;-85
2021/05/15 04:31:06;;;;;;;0.80;0.70;;;;;;;7.91;89.72;99122.88;5028424;28;20140;-83
2021/05/15 04:33:32;;;;;;;1.83;0.80;;;;;;;7.88;89.36;99117.09;5030827;28;20018;-84
2021/05/15 04:35:57;;;;;;;1.10;0.80;;;;;;;7.98;89.59;99132.78;5012357;28;20041;-83
2021/05/15 04:38:23;;;;;;;0.60;0.60;;;;;;;7.99;89.57;99126.41;5028038;28;20033;-85
2021/05/15 04:40:49;;;;;;;0.68;0.60;;;;;;;8.00;89.88;99125.38;5013113;28;20632;-83
2021/05/15 04:43:15;;;;;;;1.02;0.60;;;;;;;7.98;90.05;99119.41;5010622;28;20533;-84
2021/05/15 04:45:43;;;;;;;0.90;0.68;;;;;;;8.00;89.49;99122.72;5010379;28;20036;-85
2021/05/15 04:48:10;;;;;;;0.75;0.73;;;;;;;8.00;89.81;99122.72;5012718;28;20467;-84
2021/05/15 04:50:36;;;;;;;0.82;0.70;;;;;;;7.81;89.69;99086.81;5013966;28;20028;-83
2021/05/15 04:53:02;;;;;;;0.98;0.85;;;;;;;7.95;90.02;99114.47;5008604;28;20033;-84
2021/05/15 04:55:27;;;;;;;2.92;1.08;;;;;;;7.92;89.67;99105.78;5011595;28;20033;-85
2021/05/15 04:57:53;;;;;;;1.08;0.70;;;;;;;7.69;89.88;99073.97;5012986;28;20511;-84
2021/05/15 05:00:18;;;;;;;0.95;0.70;;;;;;;7.93;89.55;99107.44;5009384;28;20068;-84
2021/05/15 05:02:44;;;;;;;1.00;0.70;;;;;;;7.99;89.89;99116.53;5024672;28;20025;-83
2021/05/15 05:05:10;;;;;;;0.60;0.60;;;;;;;8.01;89.90;99113.66;5007280;28;20021;-85
2021/05/15 05:07:35;;;;;;;1.08;0.90;;;;;;;7.95;89.99;99098.41;5026903;28;20529;-85
2021/05/15 05:10:01;;;;;;;1.50;0.90;;;;;;;8.08;90.16;99109.16;5030974;28;20459;-84
2021/05/15 05:12:26;;;;;;;1.33;0.80;;;;;;;7.98;89.96;99092.63;5016464;28;20022;-84
2021/05/15 05:14:51;;;;;;;1.20;0.80;;;;;;;8.03;90.50;99093.69;5012805;28;20108;-83
2021/05/15 05:17:17;;;;;;;1.35;0.73;;;;;;;7.79;89.87;99064.78;5025024;28;20112;-84
2021/05/15 05:19:43;;;;;;;0.73;0.70;;;;;;;8.14;90.00;99113.69;5026704;28;20021;-84
2021/05/15 05:22:08;;;;;;;1.70;1.00;;;;;;;8.07;90.34;99097.63;5027400;28;20032;-84
2021/05/15 05:24:34;;;;;;;1.00;0.80;;;;;;;8.08;90.26;99098.44;5013861;28;20025;-84
2021/05/15 05:27:01;;;;;;;1.10;0.80;;;;;;;8.06;89.95;99098.63;5031477;28;20049;-84
2021/05/15 05:29:27;;;;;;;1.92;0.80;;;;;;;8.15;89.60;99105.47;5028910;28;20033;-83
2021/05/15 05:31:53;;;;;;;1.35;0.98;;;;;;;8.21;89.74;99106.53;5025258;28;20112;-83
2021/05/15 05:34:19;;;;;;;0.70;0.60;;;;;;;8.23;89.92;99112.50;5010835;28;20021;-84
2021/05/15 05:36:46;;;;;;;0.95;0.85;;;;;;;8.25;90.18;99109.63;5033165;28;20748;-84
2021/05/15 05:39:16;;;;;;;1.00;0.70;;;;;;;8.19;89.39;99099.72;5023417;28;20048;-84
2021/05/15 05:41:42;;;;;;;0.80;0.80;;;;;;;8.22;89.67;99105.50;5034538;28;20117;-84
2021/05/15 05:44:08;;;;;;;1.95;0.80;;;;;;;8.20;89.59;99101.34;5013920;28;20477;-84
2021/05/15 05:46:34;;;;;;;0.70;0.70;;;;;;;8.29;89.12;99106.34;5031707;28;20037;-84
2021/05/15 05:48:59;;;;;;;1.10;0.85;;;;;;;8.30;88.99;99118.69;5007871;28;20025;-83
2021/05/15 05:51:25;;;;;;;1.75;0.80;;;;;;;8.37;88.73;99108.84;5028639;28;20034;-84
2021/05/15 05:53:51;;;;;;;1.25;0.80;;;;;;;8.38;88.88;99096.25;5020722;28;20078;-84
2021/05/15 05:56:18;;;;;;;1.65;0.70;;;;;;;8.28;89.01;99077.06;5016678;28;20026;-84
2021/05/15 05:58:44;;;;;;;2.42;0.90;;;;;;;8.37;88.52;99078.56;5027030;28;20112;-84
2021/05/15 06:01:11;;;;;;;1.10;0.75;;;;;;;8.63;88.19;99101.94;5012637;28;20444;-84
2021/05/15 06:03:36;;;;;;;0.63;0.63;;;;;;;8.66;88.40;99098.00;5008483;28;20163;-85
2021/05/15 06:06:02;;;;;;;0.98;0.88;;;;;;;8.75;88.31;99083.38;5026910;28;20104;-84
2021/05/15 06:08:27;;;;;;;2.83;0.80;;;;;;;8.97;88.36;99087.53;5025516;28;20117;-84
2021/05/15 06:10:52;;;;;;;1.15;0.90;;;;;;;9.17;87.96;99087.50;5012020;28;20079;-85
2021/05/15 06:13:19;;;;;;;0.93;0.70;;;;;;;9.19;87.73;99079.25;5023601;28;20029;-84
2021/05/15 06:15:44;;;;;;;0.93;0.80;;;;;;;9.22;87.44;99081.53;5013008;28;20040;-84
2021/05/15 06:18:10;;;;;;;0.88;0.82;;;;;;;9.14;87.04;99071.00;5009883;28;20033;-84
2021/05/15 06:20:35;;;;;;;1.40;0.77;;;;;;;9.21;87.08;99088.75;5010350;28;20028;-83
2021/05/15 06:23:01;;;;;;;0.70;0.70;;;;;;;9.22;86.85;99090.38;5012316;28;20103;-84
2021/05/15 06:25:26;;;;;;;2.00;0.80;;;;;;;9.26;86.71;99090.78;5018585;28;20097;-85
2021/05/15 06:27:52;;;;;;;0.70;0.70;;;;;;;9.22;86.78;99085.03;5029124;28;20107;-85
2021/05/15 06:30:18;;;;;;;1.83;0.80;;;;;;;9.25;86.78;99081.91;5025315;28;20013;-83
2021/05/15 06:32:43;;;;;;;1.00;0.82;;;;;;;9.29;86.46;99092.22;5026918;28;20040;-85
2021/05/15 06:35:09;;;;;;;0.90;0.80;;;;;;;9.28;86.26;99071.81;5010610;28;20013;-83
2021/05/15 06:37:35;;;;;;;1.73;0.90;;;;;;;9.41;86.04;99077.16;5027850;28;20030;-84
2021/05/15 06:40:01;;;;;;;1.50;0.90;;;;;;;9.49;85.67;99090.34;5030866;28;20475;-84
2021/05/15 06:42:26;;;;;;;2.05;0.82;;;;;;;9.42;85.09;99076.97;5027701;28;20444;-84
2021/05/15 06:44:51;;;;;;;1.08;0.80;;;;;;;9.45;85.70;99068.47;5011668;28;20063;-83
2021/05/15 06:47:17;;;;;;;3.00;1.17;;;;;;;9.33;85.19;99045.19;5012208;28;20396;-84
2021/05/15 06:49:46;;;;;;;1.52;0.90;;;;;;;9.53;85.56;99085.41;5027914;28;20487;-83
2021/05/15 06:52:11;;;;;;;2.95;1.30;;;;;;;9.44;85.28;99071.38;5012123;28;20021;-84
2021/05/15 06:54:37;;;;;;;1.45;0.90;;;;;;;9.36;85.43;99069.72;5010974;28;20033;-83
2021/05/15 06:57:03;;;;;;;2.40;1.05;;;;;;;9.38;84.99;99069.53;5009093;28;20026;-84
2021/05/15 06:59:29;;;;;;;2.15;1.33;;;;;;;9.33;85.82;99064.78;5010959;28;20032;-83
2021/05/15 07:01:54;;;;;;;4.15;1.45;;;;;;;9.43;85.97;99077.78;5025861;28;20025;-84
2021/05/15 07:04:20;;;;;;;4.20;1.00;;;;;;;9.36;86.24;99069.72;5023442;28;20021;-84
2021/05/15 07:06:45;;;;;;;3.45;1.83;;;;;;;9.40;86.29;99062.09;5010378;28;20488;-84
2021/05/15 07:09:11;;;;;;;2.60;1.00;;;;;;;9.48;85.96;99066.44;5013164;28;20025;-83
2021/05/15 07:11:36;;;;;;;2.47;0.82;;;;;;;9.53;85.90;99067.44;5011057;28;20776;-83
2021/05/15 07:14:02;;;;;;;3.67;0.93;;;;;;;9.52;85.86;99060.41;5026280;28;20029;-84
2021/05/15 07:16:28;;;;;;;2.50;1.15;;;;;;;9.61;85.63;99077.94;5024474;28;20029;-85
2021/05/15 07:18:53;;;;;;;2.42;1.15;;;;;;;9.60;85.35;99065.53;5002198;28;20028;-84
2021/05/15 07:21:19;;;;;;;5.97;1.30;;;;;;;9.69;85.40;99068.84;5028857;28;20026;-84
2021/05/15 07:23:44;;;;;;;1.83;1.27;;;;;;;9.56;84.87;99047.41;5026732;28;20033;-84
2021/05/15 07:26:11;;;;;;;1.98;1.10;;;;;;;9.78;84.59;99072.09;5027381;28;20079;-83
2021/05/15 07:28:36;;;;;;;4.35;2.15;;;;;;;9.80;85.02;99081.59;5026666;28;20649;-85
2021/05/15 07:31:02;;;;;;;8.45;4.70;;;;;;;9.71;84.88;99047.97;5007499;28;20042;-84
2021/05/15 07:33:27;;;;;;;11.50;5.45;;;;;;;9.76;84.92;99047.31;5011026;28;20036;-83
2021/05/15 07:35:53;;;;;;;2.90;1.70;;;;;;;9.95;85.14;99073.28;5026799;28;20029;-84
2021/05/15 07:38:21;;;;;;;13.65;5.50;;;;;;;9.98;84.78;99075.53;5006674;28;20120;-84
2021/05/15 07:40:46;;;;;;;4.25;1.75;;;;;;;9.99;84.90;99073.69;5015321;28;20035;-84
2021/05/15 07:43:12;;;;;;;2.47;1.42;;;;;;;10.01;84.62;99080.47;5018678;28;20025;-83
2021/05/15 07:45:37;;;;;;;3.33;1.30;;;;;;;10.00;84.45;99081.53;5020572;28;20030;-84
2021/05/15 07:48:03;;;;;;;3.13;1.20;;;;;;;9.97;84.30;99068.50;5033542;28;20366;-84
2021/05/15 07:50:29;;;;;;;4.18;1.67;;;;;;;9.94;84.21;99070.81;5020704;28;20021;-84
2021/05/15 07:52:55;;;;;;;5.30;1.30;;;;;;;10.01;83.85;99075.13;5018912;28;20060;-84
2021/05/15 07:55:21;;;;;;;3.33;1.40;;;;;;;10.09;83.56;99082.09;5010230;28;20048;-83
2021/05/15 07:57:46;;;;;;;3.13;1.40;;;;;;;10.05;83.34;99065.56;5032710;28;20471;-84
2021/05/15 08:00:14;;;;;;;4.47;1.40;;;;;;;10.13;83.17;99073.41;5014143;28;20175;-84
2021/05/15 08:02:39;;;;;;;2.92;1.20;;;;;;;10.21;83.18;99068.81;5026882;28;20029;-83
2021/05/15 08:05:05;;;;;;;2.55;1.25;;;;;;;10.30;83.02;99081.00;5008287;28;20026;-83
2021/05/15 08:07:31;;;;;;;3.15;1.20;;;;;;;10.31;82.77;99071.88;5014506;28;20028;-84
2021/05/15 08:09:56;;;;;;;2.55;1.40;;;;;;;10.32;82.47;99074.38;5029547;28;20029;-84
2021/05/15 08:12:22;;;;;;;3.25;1.67;;;;;;;10.37;82.55;99072.88;5020293;28;20034;-84
2021/05/15 08:14:47;;;;;;;3.25;1.30;;;;;;;10.36;82.43;99071.25;5013147;28;20030;-84
2021/05/15 08:17:13;;;;;;;2.53;1.25;;;;;;;10.36;81.85;99065.88;5032185;28;20159;-83
2021/05/15 08:19:39;;;;;;;3.45;1.20;;;;;;;10.41;81.35;99076.81;5028771;28;20045;-83
2021/05/15 08:22:04;;;;;;;2.08;1.33;;;;;;;10.35;81.51;99067.75;5013064;28;20025;-84
2021/05/15 08:24:30;;;;;;;3.22;1.58;;;;;;;10.47;81.57;99081.31;5030146;28;20071;-83
2021/05/15 08:26:56;;;;;;;4.70;1.50;;;;;;;10.47;81.20;99074.06;5014583;28;20033;-83
2021/05/15 08:29:22;;;;;;;5.25;1.63;;;;;;;10.42;81.26;99065.00;5034484;28;20036;-83
2021/05/15 08:31:48;;;;;;;3.28;1.30;;;;;;;10.50;81.18;99078.19;5017447;28;20480;-84
2021/05/15 08:34:14;;;;;;;4.43;1.50;;;;;;;10.51;81.30;99071.78;5016136;28;20060;-83
2021/05/15 08:36:40;;;;;;;1.90;1.20;;;;;;;10.56;81.14;99080.84;5030556;28;20021;-83
2021/05/15 08:39:06;;;;;;;4.88;1.65;;;;;;;10.64;81.10;99082.44;5029937;28;20044;-83
2021/05/15 08:41:32;;;;;;;3.75;2.20;;;;;;;10.74;81.23;99084.63;5030416;28;20068;-83
2021/05/15 08:44:00;;;;;;;3.63;2.25;;;;;;;10.89;81.57;99082.44;5013841;28;20025;-83
2021/05/15 08:46:26;;;;;;;4.18;1.63;;;;;;;11.19;80.87;99089.84;5030309;28;20021;-83
2021/05/15 08:48:53;;;;;;;3.88;2.30;;;;;;;11.35;79.41;99064.25;5011495;28;20036;-83
2021/05/15 08:51:18;;;;;;;3.50;1.20;;;;;;;11.70;77.79;99082.53;5012145;28;20468;-84
2021/05/15 08:53:44;;;;;;;3.90;1.10;;;;;;;11.81;76.08;99074.53;5032083;28;20060;-84
2021/05/15 08:56:10;;;;;;;6.43;2.53;;;;;;;12.10;75.57;99074.84;5014402;28;20100;-83
2021/05/15 08:58:39;;;;;;;3.58;1.65;;;;;;;12.43;74.16;99084.34;5014178;28;20072;-84
2021/05/15 09:01:06;;;;;;;5.70;2.85;;;;;;;12.29;72.98;99081.84;5029973;28;20033;-83
2021/05/15 09:03:32;;;;;;;5.28;1.80;;;;;;;12.26;73.25;99070.69;5029910;28;20522;-83
2021/05/15 09:05:58;;;;;;;3.08;1.80;;;;;;;12.01;72.86;99043.84;5034063;28;20473;-82
2021/05/15 09:08:23;;;;;;;7.28;3.28;;;;;;;12.14;73.03;99069.81;5033396;28;20047;-82
2021/05/15 09:10:50;;;;;;;4.88;1.60;;;;;;;12.16;74.49;99071.22;5020901;28;20017;-81
2021/05/15 09:13:17;;;;;;;2.08;1.30;;;;;;;12.21;73.85;99084.03;5032950;28;20582;-83
2021/05/15 09:15:46;;;;;;;5.80;2.08;;;;;;;12.11;73.53;99084.56;5031561;28;20425;-84
2021/05/15 09:18:22;;;;;;;2.53;1.00;;;;;;;11.96;72.53;99073.34;5028920;28;20083;-83
2021/05/15 09:20:49;;;;;;;2.75;0.88;;;;;;;11.79;72.94;99070.41;5029735;28;20057;-84
2021/05/15 09:23:20;;;;;;;5.35;1.05;;;;;;;11.78;73.40;99076.88;5031840;28;20090;-83
2021/05/15 09:26:03;;;;;;;2.67;0.73;;;;;;;11.69;73.46;99072.81;5030881;28;20068;-83
2021/05/15 09:28:36;;;;;;;6.28;2.05;;;;;;;11.71;74.56;99063.47;5028694;28;20025;-83
2021/05/15 09:31:31;;;;;;;3.90;1.45;;;;;;;11.84;73.90;99065.19;5033061;28;20028;-83
2021/05/15 09:34:05;;;;;;;7.65;1.58;;;;;;;12.00;73.38;99053.81;5030649;28;20033;-83
2021/05/15 09:36:35;;;;;;;3.95;1.98;;;;;;;12.31;73.31;99066.25;5024035;28;20025;-83
2021/05/15 09:39:06;;;;;;;5.15;1.52;;;;;;;12.55;73.03;99063.66;5030469;28;20116;-84
2021/05/15 09:41:35;;;;;;;5.82;1.30;;;;;;;12.58;71.70;99063.19;5034748;28;20030;-83
2021/05/15 09:44:03;;;;;;;4.30;1.90;;;;;;;12.43;72.18;99052.00;5033969;28;20112;-84
2021/05/15 09:46:29;;;;;;;5.05;1.40;;;;;;;12.44;72.66;99061.75;5016791;28;20022;-84
2021/05/15 09:48:55;;;;;;;3.47;1.38;;;;;;;12.38;73.14;99062.63;5015612;28;20026;-83
2021/05/15 09:51:21;;;;;;;3.97;1.30;;;;;;;12.22;73.89;99062.22;5032041;28;20085;-84
2021/05/15 09:53:46;;;;;;;4.88;1.70;;;;;;;12.27;74.07;99056.97;5030666;28;20115;-84
2021/05/15 09:56:12;;;;;;;5.07;1.40;;;;;;;12.81;72.50;99048.09;5025412;28;20072;-83
2021/05/15 09:58:38;;;;;;;3.83;1.00;;;;;;;13.41;71.50;99050.63;5017417;28;20028;-83
2021/05/15 10:01:03;;;;;;;3.55;1.25;;;;;;;13.90;69.41;99037.63;5011488;28;20515;-84
2021/05/15 10:03:31;;;;;;;9.70;3.97;;;;;;;14.51;67.04;99048.78;5015256;28;20029;-84
2021/05/15 10:06:10;;;;;;;7.53;3.17;;;;;;;14.81;66.66;99045.78;5028042;28;20120;-84
2021/05/15 10:08:40;;;;;;;3.90;1.13;;;;;;;14.98;65.52;99051.22;5030096;28;20030;-84
2021/05/15 10:11:05;;;;;;;8.02;1.38;;;;;;;14.50;64.87;99045.25;5038103;28;20149;-84
2021/05/15 10:13:36;;;;;;;5.78;1.70;;;;;;;14.06;66.22;99041.44;5028429;28;20544;-84
2021/05/15 10:16:02;;;;;;;6.80;1.70;;;;;;;13.88;66.58;99047.84;5031494;28;20610;-84
2021/05/15 10:18:28;;;;;;;6.10;1.73;;;;;;;13.91;67.19;99044.66;5029039;28;20035;-84
2021/05/15 10:20:54;;;;;;;5.57;1.88;;;;;;;14.08;65.87;99039.31;5037575;28;20480;-84
2021/05/15 10:23:22;;;;;;;4.70;1.38;;;;;;;14.20;64.79;99034.69;5013983;28;20030;-84
2021/05/15 10:25:49;;;;;;;4.80;1.58;;;;;;;14.32;64.04;99050.88;5015726;28;20087;-84
2021/05/15 10:28:29;;;;;;;3.20;1.38;;;;;;;14.24;64.30;99032.34;5030805;28;20099;-84
2021/05/15 10:31:12;;;;;;;5.70;1.23;;;;;;;14.23;64.46;99044.19;5037013;28;20036;-84
2021/05/15 10:33:39;;;;;;;5.93;1.50;;;;;;;13.99;64.77;99044.28;5005837;28;20492;-85
2021/05/15 10:36:06;;;;;;;4.50;1.08;;;;;;;13.80;65.14;99043.63;5012989;28;20593;-84
2021/05/15 10:38:32;;;;;;;10.05;2.75;;;;;;;13.60;65.67;99041.34;5026065;28;20122;-85
2021/05/15 10:41:11;;;;;;;5.32;1.50;;;;;;;13.55;67.64;99038.53;5033895;28;20064;-85
2021/05/15 10:43:38;;;;;;;4.55;1.30;;;;;;;13.52;67.06;99038.16;5010002;28;20021;-84
2021/05/15 10:46:14;;;;;;;6.22;1.38;;;;;;;13.38;67.48;99049.22;5027999;28;20018;-84
2021/05/15 10:48:39;;;;;;;9.00;1.80;;;;;;;13.22;68.33;99041.78;5010877;28;20412;-84
2021/05/15 10:51:05;;;;;;;4.15;1.38;;;;;;;13.09;68.18;99033.94;5015350;28;20025;-84
2021/05/15 10:53:32;;;;;;;8.20;1.70;;;;;;;13.08;67.99;99043.91;5023759;28;20479;-84
2021/05/15 10:56:17;;;;;;;3.45;1.00;;;;;;;13.13;69.09;99049.44;5011385;28;20032;-85
2021/05/15 10:58:51;;;;;;;5.60;1.27;;;;;;;13.07;68.01;99046.84;5006330;28;20033;-84
2021/05/15 11:01:20;;;;;;;2.90;1.58;;;;;;;12.97;67.71;99042.03;5011424;28;20951;-85
2021/05/15 11:03:46;;;;;;;3.20;1.40;;;;;;;12.91;68.60;99042.94;5026671;28;20116;-84
2021/05/15 11:06:30;;;;;;;7.15;1.90;;;;;;;12.80;68.35;99032.97;5026929;28;20160;-84
2021/05/15 11:09:04;;;;;;;6.43;1.75;;;;;;;12.74;68.96;99040.94;5010410;28;20025;-84
2021/05/15 11:11:39;;;;;;;;;;;;;;;12.70;69.64;99042.47;5036437;28;20036;-85
2021/05/15 11:14:24;;;;;;;5.03;1.35;;;;;;;12.36;71.11;99041.31;5031226;28;20032;-84
2021/05/15 11:17:02;;;;;;;5.32;1.58;;;;;;;12.09;71.97;99030.91;5031981;28;20029;-84
2021/05/15 11:19:28;;;;;;;4.47;1.52;;;;;;;12.06;72.44;99050.22;5015105;28;20025;-84
2021/05/15 11:21:54;;;;;;;5.68;2.50;;;;;;;11.95;73.98;99053.66;5016918;28;20045;-84
2021/05/15 11:24:32;;;;;;;8.63;3.13;;;;;;;11.85;74.82;99048.81;5016499;28;20025;-85
2021/05/15 11:27:07;;;;;;;6.40;3.50;;;;;;;11.66;74.74;99047.16;5033143;28;20025;-85
2021/05/15 11:29:36;;;;;;;8.18;4.13;;;;;;;11.56;74.82;99050.34;5027050;28;20044;-84
2021/05/15 11:32:10;;;;;;;7.95;3.70;;;;;;;11.50;75.32;99055.84;5031244;28;20025;-84
2021/05/15 11:34:35;;;;;;;;;;;;;;;11.44;75.92;99052.16;5028512;28;20057;-84
2021/05/15 11:37:01;;;;;;;7.15;2.20;;;;;;;11.39;76.81;99035.88;5032907;28;19963;-84
2021/05/15 11:39:26;;;;;;;2.95;1.58;;;;;;;11.42;77.27;99047.00;5030924;28;21317;-83